sensor_id;sensor_type;location;lat;lon;timestamp;temperature;humidity
13806;DHT22;6974;53.606;9.872;2022-07-25T00:01:03;22.10;99.90
13806;DHT22;6974;53.606;9.872;2022-07-25T00:03:30;22.00;99.90
13806;DHT22;6974;53.606;9.872;2022-07-25T00:05:58;22.00;99.90
13806;DHT22;6974;53.606;9.872;2022-07-25T00:08:25;22.00;99.90
13806;DHT22;6974;53.606;9.872;2022-07-25T00:10:52;22.00;99.90
13806;DHT22;6974;53.606;9.872;2022-07-25T00:13:18;22.00;99.90
13806;DHT22;6974;53.606;9.872;2022-07-25T00:15:45;21.90;99.90
13806;DHT22;6974;53.606;9.872;2022-07-25T00:18:12;22.00;99.90
13806;DHT22;6974;53.606;9.872;2022-07-25T00:20:39;21.90;99.90
13806;DHT22;6974;53.606;9.872;2022-07-25T00:23:07;21.90;99.90
13806;DHT22;6974;53.606;9.872;2022-07-25T00:25:34;21.90;99.90
13806;DHT22;6974;53.606;9.872;2022-07-25T00:28:00;21.90;99.90
13806;DHT22;6974;53.606;9.872;2022-07-25T00:30:27;21.90;99.90
13806;DHT22;6974;53.606;9.872;2022-07-25T00:32:54;21.90;99.90
13806;DHT22;6974;53.606;9.872;2022-07-25T00:35:21;21.80;99.90
13806;DHT22;6974;53.606;9.872;2022-07-25T00:37:47;21.80;99.90
13806;DHT22;6974;53.606;9.872;2022-07-25T00:40:15;21.80;99.90
13806;DHT22;6974;53.606;9.872;2022-07-25T00:42:42;21.80;99.90
13806;DHT22;6974;53.606;9.872;2022-07-25T00:45:10;21.80;99.90
13806;DHT22;6974;53.606;9.872;2022-07-25T00:47:36;21.70;99.90
13806;DHT22;6974;53.606;9.872;2022-07-25T00:50:04;21.70;99.90
13806;DHT22;6974;53.606;9.872;2022-07-25T00:52:31;21.70;99.90
13806;DHT22;6974;53.606;9.872;2022-07-25T00:54:58;21.70;99.90
13806;DHT22;6974;53.606;9.872;2022-07-25T00:57:26;21.60;99.90
13806;DHT22;6974;53.606;9.872;2022-07-25T00:59:53;21.60;99.90
13806;DHT22;6974;53.606;9.872;2022-07-25T01:02:20;21.60;99.90
13806;DHT22;6974;53.606;9.872;2022-07-25T01:04:47;21.60;99.90
13806;DHT22;6974;53.606;9.872;2022-07-25T01:07:14;21.60;99.90
13806;DHT22;6974;53.606;9.872;2022-07-25T01:09:41;21.60;99.90
13806;DHT22;6974;53.606;9.872;2022-07-25T01:12:08;21.60;99.90
13806;DHT22;6974;53.606;9.872;2022-07-25T01:14:36;21.60;99.90
13806;DHT22;6974;53.606;9.872;2022-07-25T01:17:03;21.60;99.90
13806;DHT22;6974;53.606;9.872;2022-07-25T01:19:30;21.60;99.90
13806;DHT22;6974;53.606;9.872;2022-07-25T01:21:58;21.60;99.90
13806;DHT22;6974;53.606;9.872;2022-07-25T01:24:25;21.60;99.90
13806;DHT22;6974;53.606;9.872;2022-07-25T01:26:52;21.60;99.90
13806;DHT22;6974;53.606;9.872;2022-07-25T01:29:19;21.60;99.90
13806;DHT22;6974;53.606;9.872;2022-07-25T01:31:46;21.60;99.90
13806;DHT22;6974;53.606;9.872;2022-07-25T01:34:13;21.60;99.90
13806;DHT22;6974;53.606;9.872;2022-07-25T01:36:40;21.60;99.90
13806;DHT22;6974;53.606;9.872;2022-07-25T01:39:08;21.60;99.90
13806;DHT22;6974;53.606;9.872;2022-07-25T01:41:35;21.70;99.90
13806;DHT22;6974;53.606;9.872;2022-07-25T01:44:02;21.70;99.90
13806;DHT22;6974;53.606;9.872;2022-07-25T01:46:29;21.70;99.90
13806;DHT22;6974;53.606;9.872;2022-07-25T01:48:56;21.70;99.90
13806;DHT22;6974;53.606;9.872;2022-07-25T01:51:23;21.70;99.90
13806;DHT22;6974;53.606;9.872;2022-07-25T01:53:49;21.70;99.90
13806;DHT22;6974;53.606;9.872;2022-07-25T01:56:17;21.70;99.90
13806;DHT22;6974;53.606;9.872;2022-07-25T01:58:44;21.70;99.90
13806;DHT22;6974;53.606;9.872;2022-07-25T02:01:11;21.70;99.90
13806;DHT22;6974;53.606;9.872;2022-07-25T02:03:38;21.60;99.90
13806;DHT22;6974;53.606;9.872;2022-07-25T02:06:06;21.60;99.90
13806;DHT22;6974;53.606;9.872;2022-07-25T02:08:33;21.60;99.90
13806;DHT22;6974;53.606;9.872;2022-07-25T02:11:01;21.60;99.90
13806;DHT22;6974;53.606;9.872;2022-07-25T02:13:29;21.60;99.90
13806;DHT22;6974;53.606;9.872;2022-07-25T02:15:56;21.60;99.90
13806;DHT22;6974;53.606;9.872;2022-07-25T02:18:23;21.70;99.90
13806;DHT22;6974;53.606;9.872;2022-07-25T02:20:49;21.70;99.90
13806;DHT22;6974;53.606;9.872;2022-07-25T02:23:16;21.70;99.90
13806;DHT22;6974;53.606;9.872;2022-07-25T02:25:43;21.60;99.90
13806;DHT22;6974;53.606;9.872;2022-07-25T02:28:10;21.60;99.90
13806;DHT22;6974;53.606;9.872;2022-07-25T02:30:38;21.70;99.90
13806;DHT22;6974;53.606;9.872;2022-07-25T02:33:05;21.70;99.90
13806;DHT22;6974;53.606;9.872;2022-07-25T02:35:32;21.80;99.90
13806;DHT22;6974;53.606;9.872;2022-07-25T02:37:58;21.80;99.90
13806;DHT22;6974;53.606;9.872;2022-07-25T02:40:25;21.80;99.90
13806;DHT22;6974;53.606;9.872;2022-07-25T02:42:52;21.80;99.90
13806;DHT22;6974;53.606;9.872;2022-07-25T02:45:19;21.90;99.90
13806;DHT22;6974;53.606;9.872;2022-07-25T02:47:48;21.90;99.90
13806;DHT22;6974;53.606;9.872;2022-07-25T02:50:15;21.90;99.90
13806;DHT22;6974;53.606;9.872;2022-07-25T02:52:42;21.90;99.90
13806;DHT22;6974;53.606;9.872;2022-07-25T02:55:09;21.90;99.90
13806;DHT22;6974;53.606;9.872;2022-07-25T02:57:36;21.90;99.90
13806;DHT22;6974;53.606;9.872;2022-07-25T03:00:05;22.00;99.90
13806;DHT22;6974;53.606;9.872;2022-07-25T03:02:32;22.00;99.90
13806;DHT22;6974;53.606;9.872;2022-07-25T03:05:00;22.00;99.90
13806;DHT22;6974;53.606;9.872;2022-07-25T03:07:27;22.00;99.90
13806;DHT22;6974;53.606;9.872;2022-07-25T03:09:54;22.00;99.90
13806;DHT22;6974;53.606;9.872;2022-07-25T03:12:21;22.00;99.90
13806;DHT22;6974;53.606;9.872;2022-07-25T03:14:47;22.00;99.90
13806;DHT22;6974;53.606;9.872;2022-07-25T03:17:15;22.00;99.90
13806;DHT22;6974;53.606;9.872;2022-07-25T03:19:41;22.00;99.90
13806;DHT22;6974;53.606;9.872;2022-07-25T03:22:10;22.10;99.90
13806;DHT22;6974;53.606;9.872;2022-07-25T03:24:36;22.10;99.90
13806;DHT22;6974;53.606;9.872;2022-07-25T03:27:03;22.00;99.90
13806;DHT22;6974;53.606;9.872;2022-07-25T03:29:30;22.00;99.90
13806;DHT22;6974;53.606;9.872;2022-07-25T03:31:57;22.00;99.90
13806;DHT22;6974;53.606;9.872;2022-07-25T03:34:24;21.90;99.90
13806;DHT22;6974;53.606;9.872;2022-07-25T03:36:51;21.90;99.90
13806;DHT22;6974;53.606;9.872;2022-07-25T03:39:20;21.90;99.90
13806;DHT22;6974;53.606;9.872;2022-07-25T03:41:49;21.90;99.90
13806;DHT22;6974;53.606;9.872;2022-07-25T03:44:17;21.90;99.90
13806;DHT22;6974;53.606;9.872;2022-07-25T03:46:44;21.90;99.90
13806;DHT22;6974;53.606;9.872;2022-07-25T03:49:10;21.90;99.90
13806;DHT22;6974;53.606;9.872;2022-07-25T03:51:37;21.90;99.90
13806;DHT22;6974;53.606;9.872;2022-07-25T03:54:04;21.90;99.90
13806;DHT22;6974;53.606;9.872;2022-07-25T03:56:37;21.80;99.90
13806;DHT22;6974;53.606;9.872;2022-07-25T03:59:04;21.90;99.90
13806;DHT22;6974;53.606;9.872;2022-07-25T04:01:32;21.90;99.90
13806;DHT22;6974;53.606;9.872;2022-07-25T04:03:59;21.90;99.90
13806;DHT22;6974;53.606;9.872;2022-07-25T04:06:26;21.80;99.90
13806;DHT22;6974;53.606;9.872;2022-07-25T04:08:54;21.90;99.90
13806;DHT22;6974;53.606;9.872;2022-07-25T04:11:21;21.90;99.90
13806;DHT22;6974;53.606;9.872;2022-07-25T04:13:50;21.80;99.90
13806;DHT22;6974;53.606;9.872;2022-07-25T04:16:17;21.90;99.90
13806;DHT22;6974;53.606;9.872;2022-07-25T04:18:44;21.90;99.90
13806;DHT22;6974;53.606;9.872;2022-07-25T04:21:11;21.90;99.90
13806;DHT22;6974;53.606;9.872;2022-07-25T04:23:38;21.90;99.90
13806;DHT22;6974;53.606;9.872;2022-07-25T04:26:05;21.90;99.90
13806;DHT22;6974;53.606;9.872;2022-07-25T04:28:33;21.90;99.90
13806;DHT22;6974;53.606;9.872;2022-07-25T04:31:01;21.90;99.90
13806;DHT22;6974;53.606;9.872;2022-07-25T04:33:28;21.90;99.90
13806;DHT22;6974;53.606;9.872;2022-07-25T04:35:55;22.00;99.90
13806;DHT22;6974;53.606;9.872;2022-07-25T04:38:21;22.00;99.90
13806;DHT22;6974;53.606;9.872;2022-07-25T04:40:48;22.00;99.90
13806;DHT22;6974;53.606;9.872;2022-07-25T04:43:15;22.00;99.90
13806;DHT22;6974;53.606;9.872;2022-07-25T04:45:42;22.00;99.90
13806;DHT22;6974;53.606;9.872;2022-07-25T04:48:10;22.10;99.90
13806;DHT22;6974;53.606;9.872;2022-07-25T04:50:37;22.10;99.90
13806;DHT22;6974;53.606;9.872;2022-07-25T04:53:04;22.10;99.90
13806;DHT22;6974;53.606;9.872;2022-07-25T04:55:31;22.20;99.90
13806;DHT22;6974;53.606;9.872;2022-07-25T04:57:59;22.10;99.90
13806;DHT22;6974;53.606;9.872;2022-07-25T05:00:26;22.20;99.90
13806;DHT22;6974;53.606;9.872;2022-07-25T05:02:52;22.20;99.90
13806;DHT22;6974;53.606;9.872;2022-07-25T05:05:21;22.20;99.90
13806;DHT22;6974;53.606;9.872;2022-07-25T05:07:48;22.20;99.90
13806;DHT22;6974;53.606;9.872;2022-07-25T05:10:15;22.20;99.90
13806;DHT22;6974;53.606;9.872;2022-07-25T05:12:42;22.20;99.90
13806;DHT22;6974;53.606;9.872;2022-07-25T05:15:09;22.30;99.90
13806;DHT22;6974;53.606;9.872;2022-07-25T05:17:36;22.30;99.90
13806;DHT22;6974;53.606;9.872;2022-07-25T05:20:04;22.30;99.90
13806;DHT22;6974;53.606;9.872;2022-07-25T05:22:32;22.20;99.90
13806;DHT22;6974;53.606;9.872;2022-07-25T05:24:59;22.30;99.90
13806;DHT22;6974;53.606;9.872;2022-07-25T05:27:27;22.30;99.90
13806;DHT22;6974;53.606;9.872;2022-07-25T05:29:54;22.30;99.90
13806;DHT22;6974;53.606;9.872;2022-07-25T05:32:20;22.40;99.90
13806;DHT22;6974;53.606;9.872;2022-07-25T05:34:47;22.40;99.90
13806;DHT22;6974;53.606;9.872;2022-07-25T05:37:14;22.40;99.90
13806;DHT22;6974;53.606;9.872;2022-07-25T05:39:42;22.50;99.90
13806;DHT22;6974;53.606;9.872;2022-07-25T05:42:09;22.50;99.90
13806;DHT22;6974;53.606;9.872;2022-07-25T05:44:36;22.60;99.90
13806;DHT22;6974;53.606;9.872;2022-07-25T05:47:02;22.70;99.90
13806;DHT22;6974;53.606;9.872;2022-07-25T05:49:29;22.80;99.90
13806;DHT22;6974;53.606;9.872;2022-07-25T05:51:56;22.80;99.90
13806;DHT22;6974;53.606;9.872;2022-07-25T05:54:23;22.90;99.90
13806;DHT22;6974;53.606;9.872;2022-07-25T05:56:51;22.90;99.90
13806;DHT22;6974;53.606;9.872;2022-07-25T05:59:18;23.00;99.90
13806;DHT22;6974;53.606;9.872;2022-07-25T06:01:45;23.00;99.90
13806;DHT22;6974;53.606;9.872;2022-07-25T06:04:12;23.10;99.90
13806;DHT22;6974;53.606;9.872;2022-07-25T06:06:39;23.10;99.90
13806;DHT22;6974;53.606;9.872;2022-07-25T06:09:05;23.10;99.90
13806;DHT22;6974;53.606;9.872;2022-07-25T06:11:33;23.20;99.90
13806;DHT22;6974;53.606;9.872;2022-07-25T06:14:01;23.30;99.90
13806;DHT22;6974;53.606;9.872;2022-07-25T06:16:28;23.30;99.90
13806;DHT22;6974;53.606;9.872;2022-07-25T06:18:55;23.40;99.90
13806;DHT22;6974;53.606;9.872;2022-07-25T06:21:22;23.40;99.90
13806;DHT22;6974;53.606;9.872;2022-07-25T06:23:48;23.50;99.90
13806;DHT22;6974;53.606;9.872;2022-07-25T06:26:15;23.50;99.90
13806;DHT22;6974;53.606;9.872;2022-07-25T06:28:42;23.50;99.90
13806;DHT22;6974;53.606;9.872;2022-07-25T06:31:10;23.50;99.90
13806;DHT22;6974;53.606;9.872;2022-07-25T06:33:37;23.60;99.90
13806;DHT22;6974;53.606;9.872;2022-07-25T06:36:05;23.70;99.90
13806;DHT22;6974;53.606;9.872;2022-07-25T06:38:32;23.70;99.90
13806;DHT22;6974;53.606;9.872;2022-07-25T06:40:59;23.80;99.90
13806;DHT22;6974;53.606;9.872;2022-07-25T06:43:25;23.90;99.90
13806;DHT22;6974;53.606;9.872;2022-07-25T06:45:52;24.00;99.90
13806;DHT22;6974;53.606;9.872;2022-07-25T06:48:20;24.10;99.90
13806;DHT22;6974;53.606;9.872;2022-07-25T06:50:49;24.10;99.90
13806;DHT22;6974;53.606;9.872;2022-07-25T06:53:16;24.20;99.90
13806;DHT22;6974;53.606;9.872;2022-07-25T06:55:43;24.20;99.90
13806;DHT22;6974;53.606;9.872;2022-07-25T06:58:09;24.30;99.90
13806;DHT22;6974;53.606;9.872;2022-07-25T07:00:36;24.30;99.90
13806;DHT22;6974;53.606;9.872;2022-07-25T07:03:03;24.40;99.90
13806;DHT22;6974;53.606;9.872;2022-07-25T07:05:34;24.50;99.90
13806;DHT22;6974;53.606;9.872;2022-07-25T07:08:02;24.60;99.90
13806;DHT22;6974;53.606;9.872;2022-07-25T07:10:29;24.70;99.90
13806;DHT22;6974;53.606;9.872;2022-07-25T07:13:05;24.70;99.90
13806;DHT22;6974;53.606;9.872;2022-07-25T07:15:32;24.70;99.90
13806;DHT22;6974;53.606;9.872;2022-07-25T07:17:58;24.90;99.90
13806;DHT22;6974;53.606;9.872;2022-07-25T07:20:25;25.00;99.90
13806;DHT22;6974;53.606;9.872;2022-07-25T07:22:54;25.00;99.90
13806;DHT22;6974;53.606;9.872;2022-07-25T07:25:20;25.10;99.90
13806;DHT22;6974;53.606;9.872;2022-07-25T07:27:49;25.20;99.90
13806;DHT22;6974;53.606;9.872;2022-07-25T07:30:17;25.40;99.90
13806;DHT22;6974;53.606;9.872;2022-07-25T07:32:44;25.50;99.90
13806;DHT22;6974;53.606;9.872;2022-07-25T07:35:11;25.60;99.90
13806;DHT22;6974;53.606;9.872;2022-07-25T07:37:41;25.60;99.90
13806;DHT22;6974;53.606;9.872;2022-07-25T07:40:10;25.70;99.90
13806;DHT22;6974;53.606;9.872;2022-07-25T07:42:39;25.80;99.90
13806;DHT22;6974;53.606;9.872;2022-07-25T07:45:16;25.80;99.90
13806;DHT22;6974;53.606;9.872;2022-07-25T07:47:44;25.90;99.90
13806;DHT22;6974;53.606;9.872;2022-07-25T07:50:12;26.00;99.90
13806;DHT22;6974;53.606;9.872;2022-07-25T07:52:39;26.10;99.90
13806;DHT22;6974;53.606;9.872;2022-07-25T07:55:09;26.10;99.90
13806;DHT22;6974;53.606;9.872;2022-07-25T07:57:53;26.10;99.90
13806;DHT22;6974;53.606;9.872;2022-07-25T08:00:20;26.30;99.90
13806;DHT22;6974;53.606;9.872;2022-07-25T08:02:49;26.30;99.90
13806;DHT22;6974;53.606;9.872;2022-07-25T08:05:19;26.30;99.90
13806;DHT22;6974;53.606;9.872;2022-07-25T08:07:47;26.30;99.90
13806;DHT22;6974;53.606;9.872;2022-07-25T08:10:18;26.40;99.90
13806;DHT22;6974;53.606;9.872;2022-07-25T08:12:45;26.60;99.90
13806;DHT22;6974;53.606;9.872;2022-07-25T08:15:12;26.70;99.90
13806;DHT22;6974;53.606;9.872;2022-07-25T08:17:39;26.80;99.90
13806;DHT22;6974;53.606;9.872;2022-07-25T08:20:07;26.80;99.90
13806;DHT22;6974;53.606;9.872;2022-07-25T08:22:37;26.80;99.90
13806;DHT22;6974;53.606;9.872;2022-07-25T08:25:06;26.90;99.90
13806;DHT22;6974;53.606;9.872;2022-07-25T08:27:35;27.00;99.90
13806;DHT22;6974;53.606;9.872;2022-07-25T08:30:03;27.10;99.90
13806;DHT22;6974;53.606;9.872;2022-07-25T08:32:30;27.20;99.90
13806;DHT22;6974;53.606;9.872;2022-07-25T08:34:57;27.50;99.90
13806;DHT22;6974;53.606;9.872;2022-07-25T08:37:26;27.60;99.90
13806;DHT22;6974;53.606;9.872;2022-07-25T08:39:54;27.80;99.90
13806;DHT22;6974;53.606;9.872;2022-07-25T08:42:21;27.90;99.90
13806;DHT22;6974;53.606;9.872;2022-07-25T08:44:55;27.90;99.90
13806;DHT22;6974;53.606;9.872;2022-07-25T08:47:23;27.90;99.90
13806;DHT22;6974;53.606;9.872;2022-07-25T08:49:51;27.90;99.90
13806;DHT22;6974;53.606;9.872;2022-07-25T08:52:19;28.00;99.90
13806;DHT22;6974;53.606;9.872;2022-07-25T08:54:46;28.10;99.90
13806;DHT22;6974;53.606;9.872;2022-07-25T08:57:13;28.10;99.90
13806;DHT22;6974;53.606;9.872;2022-07-25T08:59:40;28.10;99.90
13806;DHT22;6974;53.606;9.872;2022-07-25T09:02:12;28.20;99.90
13806;DHT22;6974;53.606;9.872;2022-07-25T09:04:39;28.30;99.90
13806;DHT22;6974;53.606;9.872;2022-07-25T09:07:07;28.30;99.90
13806;DHT22;6974;53.606;9.872;2022-07-25T09:09:37;28.20;99.90
13806;DHT22;6974;53.606;9.872;2022-07-25T09:12:05;28.30;99.90
13806;DHT22;6974;53.606;9.872;2022-07-25T09:14:40;28.40;99.90
13806;DHT22;6974;53.606;9.872;2022-07-25T09:17:09;28.50;99.90
13806;DHT22;6974;53.606;9.872;2022-07-25T09:19:36;28.60;99.90
13806;DHT22;6974;53.606;9.872;2022-07-25T09:22:05;28.80;99.90
13806;DHT22;6974;53.606;9.872;2022-07-25T09:24:33;29.00;99.90
13806;DHT22;6974;53.606;9.872;2022-07-25T09:27:06;29.30;99.90
13806;DHT22;6974;53.606;9.872;2022-07-25T09:29:35;29.50;99.90
13806;DHT22;6974;53.606;9.872;2022-07-25T09:32:16;29.70;99.90
13806;DHT22;6974;53.606;9.872;2022-07-25T09:34:45;29.80;99.90
13806;DHT22;6974;53.606;9.872;2022-07-25T09:37:15;30.00;99.90
13806;DHT22;6974;53.606;9.872;2022-07-25T09:39:44;30.00;99.90
13806;DHT22;6974;53.606;9.872;2022-07-25T09:42:20;30.10;99.90
13806;DHT22;6974;53.606;9.872;2022-07-25T09:44:58;30.10;99.90
13806;DHT22;6974;53.606;9.872;2022-07-25T09:47:26;30.10;99.90
13806;DHT22;6974;53.606;9.872;2022-07-25T09:49:53;30.00;99.90
13806;DHT22;6974;53.606;9.872;2022-07-25T09:52:20;30.00;99.90
13806;DHT22;6974;53.606;9.872;2022-07-25T09:54:47;30.00;99.90
13806;DHT22;6974;53.606;9.872;2022-07-25T09:57:14;30.00;99.90
13806;DHT22;6974;53.606;9.872;2022-07-25T09:59:41;30.00;99.90
13806;DHT22;6974;53.606;9.872;2022-07-25T10:02:11;30.10;99.90
13806;DHT22;6974;53.606;9.872;2022-07-25T10:04:55;30.20;99.90
13806;DHT22;6974;53.606;9.872;2022-07-25T10:07:25;30.20;99.90
13806;DHT22;6974;53.606;9.872;2022-07-25T10:09:54;30.30;99.90
13806;DHT22;6974;53.606;9.872;2022-07-25T10:12:22;30.30;99.90
13806;DHT22;6974;53.606;9.872;2022-07-25T10:15:07;30.20;99.90
13806;DHT22;6974;53.606;9.872;2022-07-25T10:17:35;30.10;99.90
13806;DHT22;6974;53.606;9.872;2022-07-25T10:20:04;30.10;99.90
13806;DHT22;6974;53.606;9.872;2022-07-25T10:22:36;30.10;99.90
13806;DHT22;6974;53.606;9.872;2022-07-25T10:25:09;30.10;99.90
13806;DHT22;6974;53.606;9.872;2022-07-25T10:27:42;30.00;99.90
13806;DHT22;6974;53.606;9.872;2022-07-25T10:30:19;30.00;99.90
13806;DHT22;6974;53.606;9.872;2022-07-25T10:32:55;30.00;99.90
13806;DHT22;6974;53.606;9.872;2022-07-25T10:35:24;30.00;99.90
13806;DHT22;6974;53.606;9.872;2022-07-25T10:37:52;29.90;99.90
13806;DHT22;6974;53.606;9.872;2022-07-25T10:40:32;29.80;99.90
13806;DHT22;6974;53.606;9.872;2022-07-25T10:43:07;29.70;99.90
13806;DHT22;6974;53.606;9.872;2022-07-25T10:45:39;29.60;99.90
13806;DHT22;6974;53.606;9.872;2022-07-25T10:48:08;29.60;99.90
13806;DHT22;6974;53.606;9.872;2022-07-25T10:50:50;29.70;99.90
13806;DHT22;6974;53.606;9.872;2022-07-25T10:53:31;29.80;99.90
13806;DHT22;6974;53.606;9.872;2022-07-25T10:56:02;30.00;99.90
13806;DHT22;6974;53.606;9.872;2022-07-25T10:58:41;30.00;99.90
13806;DHT22;6974;53.606;9.872;2022-07-25T11:01:08;30.10;99.90
13806;DHT22;6974;53.606;9.872;2022-07-25T11:03:35;30.10;99.90
13806;DHT22;6974;53.606;9.872;2022-07-25T11:06:03;30.10;99.90
13806;DHT22;6974;53.606;9.872;2022-07-25T11:08:31;30.00;99.90
13806;DHT22;6974;53.606;9.872;2022-07-25T11:10:58;30.00;99.90
13806;DHT22;6974;53.606;9.872;2022-07-25T11:13:25;29.90;99.90
13806;DHT22;6974;53.606;9.872;2022-07-25T11:15:55;29.90;99.90
13806;DHT22;6974;53.606;9.872;2022-07-25T11:18:30;29.90;99.90
13806;DHT22;6974;53.606;9.872;2022-07-25T11:20:59;29.80;99.90
13806;DHT22;6974;53.606;9.872;2022-07-25T11:23:27;29.90;99.90
13806;DHT22;6974;53.606;9.872;2022-07-25T11:26:08;30.00;99.90
13806;DHT22;6974;53.606;9.872;2022-07-25T11:28:39;30.00;99.90
13806;DHT22;6974;53.606;9.872;2022-07-25T11:31:06;30.00;99.90
13806;DHT22;6974;53.606;9.872;2022-07-25T11:33:33;30.00;99.90
13806;DHT22;6974;53.606;9.872;2022-07-25T11:36:01;30.00;99.90
13806;DHT22;6974;53.606;9.872;2022-07-25T11:38:30;30.00;99.90
13806;DHT22;6974;53.606;9.872;2022-07-25T11:40:57;30.00;99.90
13806;DHT22;6974;53.606;9.872;2022-07-25T11:43:24;30.10;99.90
13806;DHT22;6974;53.606;9.872;2022-07-25T11:45:56;30.20;99.90
13806;DHT22;6974;53.606;9.872;2022-07-25T11:48:30;30.30;99.90
13806;DHT22;6974;53.606;9.872;2022-07-25T11:50:57;30.40;99.90
13806;DHT22;6974;53.606;9.872;2022-07-25T11:53:40;30.70;99.90
13806;DHT22;6974;53.606;9.872;2022-07-25T11:56:18;31.00;99.90
13806;DHT22;6974;53.606;9.872;2022-07-25T11:58:57;31.40;99.90
13806;DHT22;6974;53.606;9.872;2022-07-25T12:01:25;31.80;99.90
13806;DHT22;6974;53.606;9.872;2022-07-25T12:04:10;32.10;99.90
13806;DHT22;6974;53.606;9.872;2022-07-25T12:06:37;32.30;99.90
13806;DHT22;6974;53.606;9.872;2022-07-25T12:09:14;32.30;99.90
13806;DHT22;6974;53.606;9.872;2022-07-25T12:11:41;32.20;99.90
13806;DHT22;6974;53.606;9.872;2022-07-25T12:14:09;32.10;99.90
13806;DHT22;6974;53.606;9.872;2022-07-25T12:16:36;32.00;99.90
13806;DHT22;6974;53.606;9.872;2022-07-25T12:19:03;32.00;99.90
13806;DHT22;6974;53.606;9.872;2022-07-25T12:21:30;32.10;99.90
13806;DHT22;6974;53.606;9.872;2022-07-25T12:23:57;32.20;99.90
13806;DHT22;6974;53.606;9.872;2022-07-25T12:26:25;32.30;99.90
13806;DHT22;6974;53.606;9.872;2022-07-25T12:28:52;32.20;99.90
13806;DHT22;6974;53.606;9.872;2022-07-25T12:31:18;32.10;99.90
13806;DHT22;6974;53.606;9.872;2022-07-25T12:33:45;32.10;99.90
13806;DHT22;6974;53.606;9.872;2022-07-25T12:36:13;32.10;99.90
13806;DHT22;6974;53.606;9.872;2022-07-25T12:38:40;32.30;99.90
13806;DHT22;6974;53.606;9.872;2022-07-25T12:41:07;32.30;99.90
13806;DHT22;6974;53.606;9.872;2022-07-25T12:43:35;32.20;99.90
13806;DHT22;6974;53.606;9.872;2022-07-25T12:46:02;32.00;99.90
13806;DHT22;6974;53.606;9.872;2022-07-25T12:48:30;31.90;99.90
13806;DHT22;6974;53.606;9.872;2022-07-25T12:50:58;31.80;99.90
13806;DHT22;6974;53.606;9.872;2022-07-25T12:53:24;31.60;99.90
13806;DHT22;6974;53.606;9.872;2022-07-25T12:55:51;31.50;99.90
13806;DHT22;6974;53.606;9.872;2022-07-25T12:58:18;31.30;99.90
13806;DHT22;6974;53.606;9.872;2022-07-25T13:00:47;31.10;99.90
13806;DHT22;6974;53.606;9.872;2022-07-25T13:03:14;30.90;99.90
13806;DHT22;6974;53.606;9.872;2022-07-25T13:05:41;30.80;99.90
13806;DHT22;6974;53.606;9.872;2022-07-25T13:08:08;30.80;99.90
13806;DHT22;6974;53.606;9.872;2022-07-25T13:10:34;30.70;99.90
13806;DHT22;6974;53.606;9.872;2022-07-25T13:13:01;30.70;99.90
13806;DHT22;6974;53.606;9.872;2022-07-25T13:15:28;30.70;99.90
13806;DHT22;6974;53.606;9.872;2022-07-25T13:17:56;30.70;99.90
13806;DHT22;6974;53.606;9.872;2022-07-25T13:20:23;30.70;99.90
13806;DHT22;6974;53.606;9.872;2022-07-25T13:22:50;30.70;99.90
13806;DHT22;6974;53.606;9.872;2022-07-25T13:25:17;30.60;99.90
13806;DHT22;6974;53.606;9.872;2022-07-25T13:27:44;30.50;99.90
13806;DHT22;6974;53.606;9.872;2022-07-25T13:30:12;30.50;99.90
13806;DHT22;6974;53.606;9.872;2022-07-25T13:32:40;30.50;99.90
13806;DHT22;6974;53.606;9.872;2022-07-25T13:35:08;30.50;99.90
13806;DHT22;6974;53.606;9.872;2022-07-25T13:37:35;30.60;99.90
13806;DHT22;6974;53.606;9.872;2022-07-25T13:40:03;30.70;99.90
13806;DHT22;6974;53.606;9.872;2022-07-25T13:42:30;30.80;99.90
13806;DHT22;6974;53.606;9.872;2022-07-25T13:44:57;30.90;99.90
13806;DHT22;6974;53.606;9.872;2022-07-25T13:47:24;31.00;99.90
13806;DHT22;6974;53.606;9.872;2022-07-25T13:49:50;31.00;99.90
13806;DHT22;6974;53.606;9.872;2022-07-25T13:52:19;31.00;99.90
13806;DHT22;6974;53.606;9.872;2022-07-25T13:54:45;30.90;99.90
13806;DHT22;6974;53.606;9.872;2022-07-25T13:57:12;30.70;99.90
13806;DHT22;6974;53.606;9.872;2022-07-25T13:59:39;30.60;99.90
13806;DHT22;6974;53.606;9.872;2022-07-25T14:02:06;30.50;99.90
13806;DHT22;6974;53.606;9.872;2022-07-25T14:04:33;30.30;99.90
13806;DHT22;6974;53.606;9.872;2022-07-25T14:06:59;29.90;99.90
13806;DHT22;6974;53.606;9.872;2022-07-25T14:09:28;29.60;99.90
13806;DHT22;6974;53.606;9.872;2022-07-25T14:11:55;29.40;99.90
13806;DHT22;6974;53.606;9.872;2022-07-25T14:14:22;29.20;99.90
13806;DHT22;6974;53.606;9.872;2022-07-25T14:16:49;29.20;99.90
13806;DHT22;6974;53.606;9.872;2022-07-25T14:19:15;29.20;99.90
13806;DHT22;6974;53.606;9.872;2022-07-25T14:21:43;29.30;99.90
13806;DHT22;6974;53.606;9.872;2022-07-25T14:24:10;29.20;99.90
13806;DHT22;6974;53.606;9.872;2022-07-25T14:26:38;29.00;99.90
13806;DHT22;6974;53.606;9.872;2022-07-25T14:29:05;28.90;99.90
13806;DHT22;6974;53.606;9.872;2022-07-25T14:31:36;28.70;99.90
13806;DHT22;6974;53.606;9.872;2022-07-25T14:34:03;28.30;99.90
13806;DHT22;6974;53.606;9.872;2022-07-25T14:36:29;27.80;99.90
13806;DHT22;6974;53.606;9.872;2022-07-25T14:38:56;27.40;99.90
13806;DHT22;6974;53.606;9.872;2022-07-25T14:41:23;26.90;99.90
13806;DHT22;6974;53.606;9.872;2022-07-25T14:43:51;26.60;99.90
13806;DHT22;6974;53.606;9.872;2022-07-25T14:46:18;26.40;99.90
13806;DHT22;6974;53.606;9.872;2022-07-25T14:48:45;26.20;99.90
13806;DHT22;6974;53.606;9.872;2022-07-25T14:51:12;26.00;99.90
13806;DHT22;6974;53.606;9.872;2022-07-25T14:53:39;25.80;99.90
13806;DHT22;6974;53.606;9.872;2022-07-25T14:56:06;25.60;99.90
13806;DHT22;6974;53.606;9.872;2022-07-25T14:58:33;25.40;99.90
13806;DHT22;6974;53.606;9.872;2022-07-25T15:01:02;25.30;99.90
13806;DHT22;6974;53.606;9.872;2022-07-25T15:03:28;25.10;99.90
13806;DHT22;6974;53.606;9.872;2022-07-25T15:05:56;25.00;99.90
13806;DHT22;6974;53.606;9.872;2022-07-25T15:08:23;24.90;99.90
13806;DHT22;6974;53.606;9.872;2022-07-25T15:10:50;24.80;99.90
13806;DHT22;6974;53.606;9.872;2022-07-25T15:13:16;24.70;99.90
13806;DHT22;6974;53.606;9.872;2022-07-25T15:15:43;24.50;99.90
13806;DHT22;6974;53.606;9.872;2022-07-25T15:18:11;24.50;99.90
13806;DHT22;6974;53.606;9.872;2022-07-25T15:20:39;24.40;99.90
13806;DHT22;6974;53.606;9.872;2022-07-25T15:23:06;24.30;99.90
13806;DHT22;6974;53.606;9.872;2022-07-25T15:25:33;24.10;99.90
13806;DHT22;6974;53.606;9.872;2022-07-25T15:27:59;23.90;99.90
13806;DHT22;6974;53.606;9.872;2022-07-25T15:30:27;23.80;99.90
13806;DHT22;6974;53.606;9.872;2022-07-25T15:32:54;23.80;99.90
13806;DHT22;6974;53.606;9.872;2022-07-25T15:35:22;23.70;99.90
13806;DHT22;6974;53.606;9.872;2022-07-25T15:37:49;23.60;99.90
13806;DHT22;6974;53.606;9.872;2022-07-25T15:40:16;23.50;99.90
13806;DHT22;6974;53.606;9.872;2022-07-25T15:42:42;23.40;99.90
13806;DHT22;6974;53.606;9.872;2022-07-25T15:45:10;23.40;99.90
13806;DHT22;6974;53.606;9.872;2022-07-25T15:47:37;23.50;99.90
13806;DHT22;6974;53.606;9.872;2022-07-25T15:50:05;23.30;99.90